sensor_id;sensor_type;location;lat;lon;timestamp;noise_LAeq;noise_LA_min;noise_LA_max;noise_LA01;noise_LA95
59284;Laerm;45056;47.602;9.886;2023-09-19T00:01:03;44.33;35.31;59.24;;
59284;Laerm;45056;47.602;9.886;2023-09-19T00:03:32;40.16;36.45;43.14;;
59284;Laerm;45056;47.602;9.886;2023-09-19T00:06:00;38.29;32.93;41.22;;
59284;Laerm;45056;47.602;9.886;2023-09-19T00:08:28;39.16;32.93;44.19;;
59284;Laerm;45056;47.602;9.886;2023-09-19T00:10:56;38.24;32.93;41.46;;
59284;Laerm;45056;47.602;9.886;2023-09-19T00:13:29;38.23;32.93;43.29;;
59284;Laerm;45056;47.602;9.886;2023-09-19T00:15:58;41.54;34.31;56.21;;
59284;Laerm;45056;47.602;9.886;2023-09-19T00:18:26;39.37;34.31;43.54;;
59284;Laerm;45056;47.602;9.886;2023-09-19T00:20:59;39.39;33.90;43.77;;
59284;Laerm;45056;47.602;9.886;2023-09-19T00:23:27;38.25;32.93;40.89;;
59284;Laerm;45056;47.602;9.886;2023-09-19T00:25:58;38.23;33.44;42.09;;
59284;Laerm;45056;47.602;9.886;2023-09-19T00:28:27;38.37;32.93;42.41;;
59284;Laerm;45056;47.602;9.886;2023-09-19T00:30:56;39.53;33.44;53.31;;
59284;Laerm;45056;47.602;9.886;2023-09-19T00:33:28;39.03;32.93;48.96;;
59284;Laerm;45056;47.602;9.886;2023-09-19T00:35:58;37.99;33.44;40.79;;
59284;Laerm;45056;47.602;9.886;2023-09-19T00:38:26;38.05;33.90;41.14;;
59284;Laerm;45056;47.602;9.886;2023-09-19T00:40:55;38.66;33.44;44.15;;
59284;Laerm;45056;47.602;9.886;2023-09-19T00:43:23;41.68;34.31;46.25;;
59284;Laerm;45056;47.602;9.886;2023-09-19T00:45:54;42.66;36.69;58.73;;
59284;Laerm;45056;47.602;9.886;2023-09-19T00:48:24;44.34;37.12;50.92;;
59284;Laerm;45056;47.602;9.886;2023-09-19T00:50:58;46.34;37.32;63.98;;
59284;Laerm;45056;47.602;9.886;2023-09-19T00:53:31;39.74;35.36;47.28;;
59284;Laerm;45056;47.602;9.886;2023-09-19T00:56:03;38.75;33.44;43.14;;
59284;Laerm;45056;47.602;9.886;2023-09-19T00:58:32;38.32;33.90;42.35;;
59284;Laerm;45056;47.602;9.886;2023-09-19T01:01:02;44.55;34.31;60.40;;
59284;Laerm;45056;47.602;9.886;2023-09-19T01:03:33;38.26;32.93;47.44;;
59284;Laerm;45056;47.602;9.886;2023-09-19T01:06:03;42.64;33.90;58.56;;
59284;Laerm;45056;47.602;9.886;2023-09-19T01:08:31;39.16;32.93;44.31;;
59284;Laerm;45056;47.602;9.886;2023-09-19T01:11:08;39.01;35.04;44.62;;
59284;Laerm;45056;47.602;9.886;2023-09-19T01:13:55;39.92;35.31;49.34;;
59284;Laerm;45056;47.602;9.886;2023-09-19T01:16:36;40.60;35.04;56.26;;
59284;Laerm;45056;47.602;9.886;2023-09-19T01:20:03;37.99;33.44;41.89;;
59284;Laerm;45056;47.602;9.886;2023-09-19T01:22:52;39.16;33.90;43.99;;
59284;Laerm;45056;47.602;9.886;2023-09-19T01:28:52;38.11;32.35;42.47;;
59284;Laerm;45056;47.602;9.886;2023-09-19T01:31:28;40.51;33.90;56.41;;
59284;Laerm;45056;47.602;9.886;2023-09-19T01:34:02;42.14;35.04;57.81;;
59284;Laerm;45056;47.602;9.886;2023-09-19T01:36:34;38.42;33.44;44.15;;
59284;Laerm;45056;47.602;9.886;2023-09-19T01:39:06;40.52;34.31;54.90;;
59284;Laerm;45056;47.602;9.886;2023-09-19T01:41:57;38.72;32.93;43.77;;
59284;Laerm;45056;47.602;9.886;2023-09-19T01:44:41;40.24;32.93;50.08;;
59284;Laerm;45056;47.602;9.886;2023-09-19T01:47:24;42.21;32.93;55.97;;
59284;Laerm;45056;47.602;9.886;2023-09-19T01:50:10;38.79;33.90;43.72;;
59284;Laerm;45056;47.602;9.886;2023-09-19T01:52:49;48.75;36.45;67.02;;
59284;Laerm;45056;47.602;9.886;2023-09-19T01:55:22;48.94;36.45;67.81;;
59284;Laerm;45056;47.602;9.886;2023-09-19T01:58:14;38.78;32.93;43.77;;
59284;Laerm;45056;47.602;9.886;2023-09-19T02:00:48;45.97;35.66;59.96;;
59284;Laerm;45056;47.602;9.886;2023-09-19T02:03:21;40.88;32.93;56.99;;
59284;Laerm;45056;47.602;9.886;2023-09-19T02:05:50;42.11;36.91;55.14;;
59284;Laerm;45056;47.602;9.886;2023-09-19T02:08:22;39.26;34.31;44.15;;
59284;Laerm;45056;47.602;9.886;2023-09-19T02:10:51;39.58;33.90;44.83;;
59284;Laerm;45056;47.602;9.886;2023-09-19T02:13:22;38.67;34.31;41.75;;
59284;Laerm;45056;47.602;9.886;2023-09-19T02:15:54;43.04;35.94;57.42;;
59284;Laerm;45056;47.602;9.886;2023-09-19T02:18:23;40.26;35.04;45.23;;
59284;Laerm;45056;47.602;9.886;2023-09-19T02:20:53;39.92;33.90;49.89;;
59284;Laerm;45056;47.602;9.886;2023-09-19T02:23:22;38.87;34.31;44.19;;
59284;Laerm;45056;47.602;9.886;2023-09-19T02:25:54;39.56;34.69;44.03;;
59284;Laerm;45056;47.602;9.886;2023-09-19T02:28:24;40.17;35.36;44.97;;
59284;Laerm;45056;47.602;9.886;2023-09-19T02:30:56;42.28;36.45;57.39;;
59284;Laerm;45056;47.602;9.886;2023-09-19T02:33:26;42.59;35.66;57.06;;
59284;Laerm;45056;47.602;9.886;2023-09-19T02:35:55;41.09;35.04;50.97;;
59284;Laerm;45056;47.602;9.886;2023-09-19T02:38:25;39.13;34.69;42.09;;
59284;Laerm;45056;47.602;9.886;2023-09-19T02:40:53;39.25;34.31;43.34;;
59284;Laerm;45056;47.602;9.886;2023-09-19T02:43:22;42.72;34.69;61.40;;
59284;Laerm;45056;47.602;9.886;2023-09-19T02:45:50;45.65;37.52;60.94;;
59284;Laerm;45056;47.602;9.886;2023-09-19T02:48:20;46.43;35.59;59.41;;
59284;Laerm;45056;47.602;9.886;2023-09-19T02:50:51;43.63;35.66;57.45;;
59284;Laerm;45056;47.602;9.886;2023-09-19T02:53:19;49.37;36.20;67.77;;
59284;Laerm;45056;47.602;9.886;2023-09-19T02:55:47;41.92;36.20;51.96;;
59284;Laerm;45056;47.602;9.886;2023-09-19T02:58:16;43.06;36.45;50.35;;
59284;Laerm;45056;47.602;9.886;2023-09-19T03:00:45;47.49;37.70;58.99;;
59284;Laerm;45056;47.602;9.886;2023-09-19T03:03:14;42.51;35.31;59.07;;
59284;Laerm;45056;47.602;9.886;2023-09-19T03:05:43;41.21;34.69;48.99;;
59284;Laerm;45056;47.602;9.886;2023-09-19T03:08:15;43.53;37.52;57.93;;
59284;Laerm;45056;47.602;9.886;2023-09-19T03:10:46;43.00;37.70;57.92;;
59284;Laerm;45056;47.602;9.886;2023-09-19T03:13:14;45.75;38.21;59.76;;
59284;Laerm;45056;47.602;9.886;2023-09-19T03:15:43;42.86;37.32;54.56;;
59284;Laerm;45056;47.602;9.886;2023-09-19T03:18:13;44.61;37.88;61.44;;
59284;Laerm;45056;47.602;9.886;2023-09-19T03:20:41;44.46;38.05;60.03;;
59284;Laerm;45056;47.602;9.886;2023-09-19T03:23:09;45.80;37.88;58.78;;
59284;Laerm;45056;47.602;9.886;2023-09-19T03:25:39;46.28;38.95;60.84;;
59284;Laerm;45056;47.602;9.886;2023-09-19T03:28:07;43.69;36.20;55.46;;
59284;Laerm;45056;47.602;9.886;2023-09-19T03:30:36;44.62;36.20;56.12;;
59284;Laerm;45056;47.602;9.886;2023-09-19T03:33:05;42.32;36.45;55.03;;
59284;Laerm;45056;47.602;9.886;2023-09-19T03:35:33;49.69;40.43;62.08;;
59284;Laerm;45056;47.602;9.886;2023-09-19T03:38:01;44.75;37.88;57.66;;
59284;Laerm;45056;47.602;9.886;2023-09-19T03:40:29;46.19;37.88;60.49;;
59284;Laerm;45056;47.602;9.886;2023-09-19T03:43:01;46.15;40.71;59.67;;
59284;Laerm;45056;47.602;9.886;2023-09-19T03:45:30;46.64;39.34;59.21;;
59284;Laerm;45056;47.602;9.886;2023-09-19T03:47:58;47.38;38.52;57.16;;
59284;Laerm;45056;47.602;9.886;2023-09-19T03:50:26;45.89;39.81;58.37;;
59284;Laerm;45056;47.602;9.886;2023-09-19T03:52:56;46.90;40.23;57.77;;
59284;Laerm;45056;47.602;9.886;2023-09-19T03:55:24;46.97;40.62;56.73;;
59284;Laerm;45056;47.602;9.886;2023-09-19T03:57:53;45.25;38.52;57.82;;
59284;Laerm;45056;47.602;9.886;2023-09-19T04:00:22;45.89;37.88;56.54;;
59284;Laerm;45056;47.602;9.886;2023-09-19T04:02:53;51.52;38.67;65.63;;
59284;Laerm;45056;47.602;9.886;2023-09-19T04:05:23;54.64;40.62;71.08;;
59284;Laerm;45056;47.602;9.886;2023-09-19T04:07:51;44.92;38.52;56.47;;
59284;Laerm;45056;47.602;9.886;2023-09-19T04:10:20;44.06;38.05;52.80;;
59284;Laerm;45056;47.602;9.886;2023-09-19T04:12:51;43.68;38.81;54.31;;
59284;Laerm;45056;47.602;9.886;2023-09-19T04:15:22;46.14;40.62;56.71;;
59284;Laerm;45056;47.602;9.886;2023-09-19T04:17:51;46.33;38.95;58.06;;
59284;Laerm;45056;47.602;9.886;2023-09-19T04:20:19;45.15;39.34;56.55;;
59284;Laerm;45056;47.602;9.886;2023-09-19T04:22:49;46.10;38.05;55.73;;
59284;Laerm;45056;47.602;9.886;2023-09-19T04:25:17;47.33;39.34;60.52;;
59284;Laerm;45056;47.602;9.886;2023-09-19T04:27:47;49.26;38.67;66.04;;
59284;Laerm;45056;47.602;9.886;2023-09-19T04:30:16;46.16;37.52;56.92;;
59284;Laerm;45056;47.602;9.886;2023-09-19T04:32:45;45.56;39.70;57.31;;
59284;Laerm;45056;47.602;9.886;2023-09-19T04:35:17;45.70;38.05;56.68;;
59284;Laerm;45056;47.602;9.886;2023-09-19T04:37:45;47.21;39.58;58.92;;
59284;Laerm;45056;47.602;9.886;2023-09-19T04:40:14;46.20;39.21;57.11;;
59284;Laerm;45056;47.602;9.886;2023-09-19T04:42:44;45.96;39.58;55.72;;
59284;Laerm;45056;47.602;9.886;2023-09-19T04:45:13;47.05;39.34;57.06;;
59284;Laerm;45056;47.602;9.886;2023-09-19T04:47:41;46.83;40.23;56.94;;
59284;Laerm;45056;47.602;9.886;2023-09-19T04:50:11;46.95;39.70;56.78;;
59284;Laerm;45056;47.602;9.886;2023-09-19T04:52:41;46.50;38.21;59.14;;
59284;Laerm;45056;47.602;9.886;2023-09-19T04:55:11;47.61;41.06;57.58;;
59284;Laerm;45056;47.602;9.886;2023-09-19T04:57:43;49.58;39.34;64.05;;
59284;Laerm;45056;47.602;9.886;2023-09-19T05:00:13;50.48;41.06;63.28;;
59284;Laerm;45056;47.602;9.886;2023-09-19T05:02:43;50.57;42.47;60.98;;
59284;Laerm;45056;47.602;9.886;2023-09-19T05:05:13;48.42;41.82;58.91;;
59284;Laerm;45056;47.602;9.886;2023-09-19T05:07:44;49.18;40.03;62.45;;
59284;Laerm;45056;47.602;9.886;2023-09-19T05:10:13;57.73;45.77;75.14;;
59284;Laerm;45056;47.602;9.886;2023-09-19T05:12:41;49.73;42.22;65.76;;
59284;Laerm;45056;47.602;9.886;2023-09-19T05:15:12;47.39;41.61;57.45;;
59284;Laerm;45056;47.602;9.886;2023-09-19T05:17:41;48.35;42.65;58.66;;
59284;Laerm;45056;47.602;9.886;2023-09-19T05:20:12;48.27;41.96;57.19;;
59284;Laerm;45056;47.602;9.886;2023-09-19T05:22:58;47.37;41.30;55.58;;
59284;Laerm;45056;47.602;9.886;2023-09-19T05:25:28;49.51;41.06;63.09;;
59284;Laerm;45056;47.602;9.886;2023-09-19T05:27:58;48.00;41.61;57.76;;
59284;Laerm;45056;47.602;9.886;2023-09-19T05:30:27;48.63;42.09;57.93;;
59284;Laerm;45056;47.602;9.886;2023-09-19T05:32:55;49.63;42.03;62.27;;
59284;Laerm;45056;47.602;9.886;2023-09-19T05:35:26;48.03;41.38;58.01;;
59284;Laerm;45056;47.602;9.886;2023-09-19T05:37:54;48.15;42.88;56.33;;
59284;Laerm;45056;47.602;9.886;2023-09-19T05:40:22;48.00;42.98;56.97;;
59284;Laerm;45056;47.602;9.886;2023-09-19T05:42:51;49.82;40.89;62.00;;
59284;Laerm;45056;47.602;9.886;2023-09-19T05:45:19;49.91;42.59;59.85;;
59284;Laerm;45056;47.602;9.886;2023-09-19T05:47:49;48.05;42.03;56.65;;
59284;Laerm;45056;47.602;9.886;2023-09-19T05:50:18;50.66;43.58;60.25;;
59284;Laerm;45056;47.602;9.886;2023-09-19T05:52:54;50.42;42.03;64.02;;
59284;Laerm;45056;47.602;9.886;2023-09-19T05:55:23;51.89;42.76;62.45;;
59284;Laerm;45056;47.602;9.886;2023-09-19T05:57:52;53.80;43.29;71.13;;
59284;Laerm;45056;47.602;9.886;2023-09-19T06:00:23;50.33;42.35;63.87;;
59284;Laerm;45056;47.602;9.886;2023-09-19T06:02:54;50.05;42.00;60.08;;
59284;Laerm;45056;47.602;9.886;2023-09-19T06:05:26;46.38;40.89;55.79;;
59284;Laerm;45056;47.602;9.886;2023-09-19T06:07:56;46.30;40.03;56.47;;
59284;Laerm;45056;47.602;9.886;2023-09-19T06:10:29;47.97;42.53;58.93;;
59284;Laerm;45056;47.602;9.886;2023-09-19T06:12:58;45.80;42.71;58.49;;
59284;Laerm;45056;47.602;9.886;2023-09-19T06:15:26;47.33;41.61;56.07;;
59284;Laerm;45056;47.602;9.886;2023-09-19T06:17:56;46.22;40.62;56.40;;
59284;Laerm;45056;47.602;9.886;2023-09-19T06:20:25;48.75;42.22;55.82;;
59284;Laerm;45056;47.602;9.886;2023-09-19T06:22:58;46.96;42.59;60.19;;
59284;Laerm;45056;47.602;9.886;2023-09-19T06:25:28;46.58;41.22;56.56;;
59284;Laerm;45056;47.602;9.886;2023-09-19T06:27:56;47.61;41.61;57.26;;
59284;Laerm;45056;47.602;9.886;2023-09-19T06:30:25;47.23;41.38;67.07;;
59284;Laerm;45056;47.602;9.886;2023-09-19T06:32:56;53.70;41.61;72.13;;
59284;Laerm;45056;47.602;9.886;2023-09-19T06:35:26;49.54;40.33;62.51;;
59284;Laerm;45056;47.602;9.886;2023-09-19T06:37:54;48.79;40.80;63.44;;
59284;Laerm;45056;47.602;9.886;2023-09-19T06:40:26;46.46;41.61;57.01;;
59284;Laerm;45056;47.602;9.886;2023-09-19T06:42:54;49.22;40.53;63.87;;
59284;Laerm;45056;47.602;9.886;2023-09-19T06:45:23;49.37;42.16;64.96;;
59284;Laerm;45056;47.602;9.886;2023-09-19T06:47:54;47.71;42.09;59.49;;
59284;Laerm;45056;47.602;9.886;2023-09-19T06:50:24;48.68;42.41;65.10;;
59284;Laerm;45056;47.602;9.886;2023-09-19T06:52:55;47.22;41.96;56.07;;
59284;Laerm;45056;47.602;9.886;2023-09-19T06:55:26;46.34;40.71;58.13;;
59284;Laerm;45056;47.602;9.886;2023-09-19T06:57:54;47.16;40.23;56.38;;
59284;Laerm;45056;47.602;9.886;2023-09-19T07:00:23;48.13;41.68;58.10;;
59284;Laerm;45056;47.602;9.886;2023-09-19T07:02:56;47.13;40.43;59.61;;
59284;Laerm;45056;47.602;9.886;2023-09-19T07:05:25;46.48;40.62;54.02;;
59284;Laerm;45056;47.602;9.886;2023-09-19T07:07:54;46.75;41.53;56.24;;
59284;Laerm;45056;47.602;9.886;2023-09-19T07:10:23;49.44;42.35;59.96;;
59284;Laerm;45056;47.602;9.886;2023-09-19T07:12:58;47.00;41.38;57.67;;
59284;Laerm;45056;47.602;9.886;2023-09-19T07:15:28;46.08;40.45;57.20;;
59284;Laerm;45056;47.602;9.886;2023-09-19T07:17:57;49.59;41.53;63.84;;
59284;Laerm;45056;47.602;9.886;2023-09-19T07:20:25;48.74;41.38;62.67;;
59284;Laerm;45056;47.602;9.886;2023-09-19T07:22:54;50.41;40.89;66.79;;
59284;Laerm;45056;47.602;9.886;2023-09-19T07:25:22;46.78;41.68;54.51;;
59284;Laerm;45056;47.602;9.886;2023-09-19T07:27:51;47.45;40.43;57.74;;
59284;Laerm;45056;47.602;9.886;2023-09-19T07:30:21;49.65;41.82;64.38;;
59284;Laerm;45056;47.602;9.886;2023-09-19T07:32:49;47.28;40.98;56.44;;
59284;Laerm;45056;47.602;9.886;2023-09-19T07:35:18;48.05;42.29;58.59;;
59284;Laerm;45056;47.602;9.886;2023-09-19T07:37:47;49.45;41.82;64.77;;
59284;Laerm;45056;47.602;9.886;2023-09-19T07:40:16;48.54;41.61;62.28;;
59284;Laerm;45056;47.602;9.886;2023-09-19T07:42:44;48.42;41.68;59.35;;
59284;Laerm;45056;47.602;9.886;2023-09-19T07:45:13;50.04;42.09;65.72;;
59284;Laerm;45056;47.602;9.886;2023-09-19T07:47:46;47.57;42.82;57.65;;
59284;Laerm;45056;47.602;9.886;2023-09-19T07:50:16;47.21;40.89;59.06;;
59284;Laerm;45056;47.602;9.886;2023-09-19T07:52:46;46.26;39.92;55.98;;
59284;Laerm;45056;47.602;9.886;2023-09-19T07:55:14;48.61;43.19;57.42;;
59284;Laerm;45056;47.602;9.886;2023-09-19T07:57:44;47.72;40.89;60.65;;
59284;Laerm;45056;47.602;9.886;2023-09-19T08:00:14;49.69;41.38;61.04;;
59284;Laerm;45056;47.602;9.886;2023-09-19T08:02:44;49.10;41.38;58.51;;
59284;Laerm;45056;47.602;9.886;2023-09-19T08:05:14;48.19;41.75;58.33;;
59284;Laerm;45056;47.602;9.886;2023-09-19T08:07:45;47.97;39.70;66.50;;
59284;Laerm;45056;47.602;9.886;2023-09-19T08:10:16;57.31;42.03;78.88;;
59284;Laerm;45056;47.602;9.886;2023-09-19T08:12:48;47.83;40.62;63.10;;
59284;Laerm;45056;47.602;9.886;2023-09-19T08:15:22;50.69;41.38;75.56;;
59284;Laerm;45056;47.602;9.886;2023-09-19T08:17:52;50.85;41.30;73.39;;
59284;Laerm;45056;47.602;9.886;2023-09-19T08:20:20;48.65;40.71;67.94;;
59284;Laerm;45056;47.602;9.886;2023-09-19T08:22:50;54.75;41.75;71.26;;
59284;Laerm;45056;47.602;9.886;2023-09-19T08:25:19;49.85;41.06;69.93;;
59284;Laerm;45056;47.602;9.886;2023-09-19T08:27:47;49.41;41.75;68.94;;
59284;Laerm;45056;47.602;9.886;2023-09-19T08:30:17;48.15;41.82;65.68;;
59284;Laerm;45056;47.602;9.886;2023-09-19T08:32:47;48.25;38.95;65.48;;
59284;Laerm;45056;47.602;9.886;2023-09-19T08:35:16;51.00;40.98;65.13;;
59284;Laerm;45056;47.602;9.886;2023-09-19T08:37:46;51.34;42.88;66.00;;
59284;Laerm;45056;47.602;9.886;2023-09-19T08:40:14;50.69;40.33;71.69;;
59284;Laerm;45056;47.602;9.886;2023-09-19T08:42:49;49.02;42.41;64.97;;
59284;Laerm;45056;47.602;9.886;2023-09-19T08:45:18;52.18;42.53;76.50;;
59284;Laerm;45056;47.602;9.886;2023-09-19T08:47:56;50.90;42.29;70.18;;
59284;Laerm;45056;47.602;9.886;2023-09-19T08:50:31;50.19;42.41;66.66;;
59284;Laerm;45056;47.602;9.886;2023-09-19T08:53:01;51.98;43.34;73.94;;
59284;Laerm;45056;47.602;9.886;2023-09-19T08:55:40;51.03;41.38;70.94;;
59284;Laerm;45056;47.602;9.886;2023-09-19T08:58:13;52.28;42.41;66.48;;
59284;Laerm;45056;47.602;9.886;2023-09-19T09:00:47;50.33;43.19;62.90;;
59284;Laerm;45056;47.602;9.886;2023-09-19T09:03:18;48.79;42.53;62.97;;
59284;Laerm;45056;47.602;9.886;2023-09-19T09:05:51;48.82;41.68;67.51;;
59284;Laerm;45056;47.602;9.886;2023-09-19T09:08:20;49.41;41.82;68.06;;
59284;Laerm;45056;47.602;9.886;2023-09-19T09:10:50;52.49;42.65;65.04;;
59284;Laerm;45056;47.602;9.886;2023-09-19T09:13:19;50.36;42.29;71.05;;
59284;Laerm;45056;47.602;9.886;2023-09-19T09:15:48;49.33;41.96;68.39;;
59284;Laerm;45056;47.602;9.886;2023-09-19T09:18:17;48.39;42.09;67.28;;
59284;Laerm;45056;47.602;9.886;2023-09-19T09:20:45;54.02;42.29;75.67;;
59284;Laerm;45056;47.602;9.886;2023-09-19T09:23:16;55.73;41.22;83.56;;
59284;Laerm;45056;47.602;9.886;2023-09-19T09:25:50;48.05;40.71;62.49;;
59284;Laerm;45056;47.602;9.886;2023-09-19T09:28:23;47.66;41.46;65.20;;
59284;Laerm;45056;47.602;9.886;2023-09-19T09:30:51;54.48;42.35;66.77;;
59284;Laerm;45056;47.602;9.886;2023-09-19T09:33:20;48.39;42.82;64.18;;
59284;Laerm;45056;47.602;9.886;2023-09-19T09:35:51;48.60;41.82;65.85;;
59284;Laerm;45056;47.602;9.886;2023-09-19T09:38:23;48.90;43.09;64.13;;
59284;Laerm;45056;47.602;9.886;2023-09-19T09:40:56;48.97;42.41;67.03;;
59284;Laerm;45056;47.602;9.886;2023-09-19T09:43:31;54.11;44.35;72.38;;
59284;Laerm;45056;47.602;9.886;2023-09-19T09:46:08;56.24;45.14;69.08;;
59284;Laerm;45056;47.602;9.886;2023-09-19T09:49:01;52.34;42.22;70.27;;
59284;Laerm;45056;47.602;9.886;2023-09-19T09:51:50;49.58;41.14;62.48;;
59284;Laerm;45056;47.602;9.886;2023-09-19T09:54:30;48.77;41.06;67.84;;
59284;Laerm;45056;47.602;9.886;2023-09-19T09:57:06;49.05;41.68;66.30;;
59284;Laerm;45056;47.602;9.886;2023-09-19T09:59:46;47.82;40.62;67.05;;
59284;Laerm;45056;47.602;9.886;2023-09-19T10:02:15;54.07;43.19;68.71;;
59284;Laerm;45056;47.602;9.886;2023-09-19T10:04:50;60.59;48.05;71.89;;
59284;Laerm;45056;47.602;9.886;2023-09-19T10:07:36;54.43;41.89;75.98;;
59284;Laerm;45056;47.602;9.886;2023-09-19T10:10:09;48.97;40.80;62.12;;
59284;Laerm;45056;47.602;9.886;2023-09-19T10:12:46;47.30;40.13;66.29;;
59284;Laerm;45056;47.602;9.886;2023-09-19T10:15:18;52.73;42.59;66.38;;
59284;Laerm;45056;47.602;9.886;2023-09-19T10:17:48;49.06;40.33;64.54;;
59284;Laerm;45056;47.602;9.886;2023-09-19T10:20:17;48.15;41.46;63.12;;
59284;Laerm;45056;47.602;9.886;2023-09-19T10:23:11;49.28;39.92;68.16;;
59284;Laerm;45056;47.602;9.886;2023-09-19T10:25:43;48.53;41.46;61.97;;
59284;Laerm;45056;47.602;9.886;2023-09-19T10:28:16;48.54;39.70;62.03;;
59284;Laerm;45056;47.602;9.886;2023-09-19T10:30:50;47.86;40.62;54.83;;
59284;Laerm;45056;47.602;9.886;2023-09-19T10:33:21;46.91;41.22;54.00;;
59284;Laerm;45056;47.602;9.886;2023-09-19T10:35:50;52.90;42.98;70.32;;
59284;Laerm;45056;47.602;9.886;2023-09-19T10:38:23;47.11;40.71;55.57;;
59284;Laerm;45056;47.602;9.886;2023-09-19T10:40:55;49.68;41.53;64.96;;
59284;Laerm;45056;47.602;9.886;2023-09-19T10:43:31;46.62;40.62;61.86;;
59284;Laerm;45056;47.602;9.886;2023-09-19T10:46:05;48.42;40.98;62.15;;
59284;Laerm;45056;47.602;9.886;2023-09-19T10:48:38;49.77;40.80;63.13;;
59284;Laerm;45056;47.602;9.886;2023-09-19T10:51:12;55.73;42.82;76.44;;
59284;Laerm;45056;47.602;9.886;2023-09-19T10:53:49;51.94;42.82;68.35;;
59284;Laerm;45056;47.602;9.886;2023-09-19T10:56:26;49.56;42.22;62.35;;
59284;Laerm;45056;47.602;9.886;2023-09-19T10:59:07;48.87;40.80;57.58;;
59284;Laerm;45056;47.602;9.886;2023-09-19T11:01:44;52.29;43.29;68.28;;
59284;Laerm;45056;47.602;9.886;2023-09-19T11:04:32;48.84;41.22;59.06;;
59284;Laerm;45056;47.602;9.886;2023-09-19T11:07:05;47.92;43.63;55.31;;
59284;Laerm;45056;47.602;9.886;2023-09-19T11:09:47;53.19;43.29;64.65;;
59284;Laerm;45056;47.602;9.886;2023-09-19T11:12:50;50.04;42.47;61.94;;
59284;Laerm;45056;47.602;9.886;2023-09-19T11:18:55;48.13;39.34;66.51;;
59284;Laerm;45056;47.602;9.886;2023-09-19T11:21:54;48.34;41.46;57.57;;
59284;Laerm;45056;47.602;9.886;2023-09-19T11:24:30;47.28;41.38;57.69;;
59284;Laerm;45056;47.602;9.886;2023-09-19T11:27:15;46.21;41.38;53.18;;
59284;Laerm;45056;47.602;9.886;2023-09-19T11:29:46;47.21;42.03;56.83;;
59284;Laerm;45056;47.602;9.886;2023-09-19T11:32:15;47.22;42.03;59.03;;
59284;Laerm;45056;47.602;9.886;2023-09-19T11:34:48;48.90;41.75;61.65;;
59284;Laerm;45056;47.602;9.886;2023-09-19T11:37:59;49.14;42.76;60.37;;
59284;Laerm;45056;47.602;9.886;2023-09-19T11:40:45;47.98;41.53;56.67;;
59284;Laerm;45056;47.602;9.886;2023-09-19T11:43:32;47.94;41.53;60.60;;
59284;Laerm;45056;47.602;9.886;2023-09-19T11:46:07;48.17;41.75;58.85;;
59284;Laerm;45056;47.602;9.886;2023-09-19T11:48:38;48.61;42.65;58.74;;
59284;Laerm;45056;47.602;9.886;2023-09-19T11:51:19;48.19;41.46;59.53;;
59284;Laerm;45056;47.602;9.886;2023-09-19T11:53:50;46.87;40.33;57.60;;
59284;Laerm;45056;47.602;9.886;2023-09-19T11:56:20;47.45;40.98;54.55;;
59284;Laerm;45056;47.602;9.886;2023-09-19T11:58:52;48.69;41.46;59.57;;
59284;Laerm;45056;47.602;9.886;2023-09-19T12:01:25;49.53;41.14;65.74;;
59284;Laerm;45056;47.602;9.886;2023-09-19T12:03:58;48.85;42.16;61.33;;
59284;Laerm;45056;47.602;9.886;2023-09-19T12:06:28;47.90;40.53;58.33;;
59284;Laerm;45056;47.602;9.886;2023-09-19T12:08:59;49.55;41.14;63.83;;
59284;Laerm;45056;47.602;9.886;2023-09-19T12:11:30;47.75;42.41;59.33;;
59284;Laerm;45056;47.602;9.886;2023-09-19T12:14:01;46.89;40.89;55.16;;
59284;Laerm;45056;47.602;9.886;2023-09-19T12:16:32;48.58;41.75;59.96;;
59284;Laerm;45056;47.602;9.886;2023-09-19T12:19:18;47.44;42.03;57.21;;
59284;Laerm;45056;47.602;9.886;2023-09-19T12:21:56;48.94;40.23;63.59;;
59284;Laerm;45056;47.602;9.886;2023-09-19T12:24:27;48.03;39.92;59.64;;
59284;Laerm;45056;47.602;9.886;2023-09-19T12:27:02;48.30;42.88;58.60;;
59284;Laerm;45056;47.602;9.886;2023-09-19T12:29:42;49.55;41.82;63.46;;
59284;Laerm;45056;47.602;9.886;2023-09-19T12:32:12;47.17;41.38;59.11;;
59284;Laerm;45056;47.602;9.886;2023-09-19T12:34:51;49.23;41.30;61.93;;
59284;Laerm;45056;47.602;9.886;2023-09-19T12:37:21;48.68;40.13;60.46;;
59284;Laerm;45056;47.602;9.886;2023-09-19T12:39:52;47.35;41.75;57.26;;
59284;Laerm;45056;47.602;9.886;2023-09-19T12:42:26;49.01;40.62;64.35;;
59284;Laerm;45056;47.602;9.886;2023-09-19T12:44:57;48.13;41.30;61.60;;
59284;Laerm;45056;47.602;9.886;2023-09-19T12:47:28;47.88;40.89;58.49;;
59284;Laerm;45056;47.602;9.886;2023-09-19T12:50:09;48.71;40.98;60.02;;
59284;Laerm;45056;47.602;9.886;2023-09-19T12:52:44;49.10;41.26;60.75;;
59284;Laerm;45056;47.602;9.886;2023-09-19T12:55:22;47.92;41.38;56.90;;
59284;Laerm;45056;47.602;9.886;2023-09-19T12:58:12;48.91;42.29;60.48;;
59284;Laerm;45056;47.602;9.886;2023-09-19T13:00:43;49.23;42.47;59.28;;
59284;Laerm;45056;47.602;9.886;2023-09-19T13:03:27;47.79;40.89;61.13;;
59284;Laerm;45056;47.602;9.886;2023-09-19T13:06:00;48.39;42.09;62.60;;
59284;Laerm;45056;47.602;9.886;2023-09-19T13:08:31;48.70;41.41;60.81;;
59284;Laerm;45056;47.602;9.886;2023-09-19T13:11:03;48.93;40.71;62.00;;
59284;Laerm;45056;47.602;9.886;2023-09-19T13:13:34;48.34;42.47;61.40;;
59284;Laerm;45056;47.602;9.886;2023-09-19T13:16:03;49.88;40.89;64.38;;
59284;Laerm;45056;47.602;9.886;2023-09-19T13:18:47;47.09;40.33;63.16;;
59284;Laerm;45056;47.602;9.886;2023-09-19T13:21:29;48.01;40.36;66.07;;
59284;Laerm;45056;47.602;9.886;2023-09-19T13:24:20;49.14;40.98;64.53;;
59284;Laerm;45056;47.602;9.886;2023-09-19T13:26:49;49.87;41.81;67.83;;
59284;Laerm;45056;47.602;9.886;2023-09-19T13:29:18;53.71;41.22;68.99;;
59284;Laerm;45056;47.602;9.886;2023-09-19T13:31:47;49.81;43.19;60.54;;
59284;Laerm;45056;47.602;9.886;2023-09-19T13:34:17;48.89;42.03;62.51;;
59284;Laerm;45056;47.602;9.886;2023-09-19T13:36:46;47.88;43.19;57.63;;
59284;Laerm;45056;47.602;9.886;2023-09-19T13:39:15;50.33;41.61;65.99;;
59284;Laerm;45056;47.602;9.886;2023-09-19T13:41:44;49.63;43.77;57.96;;
59284;Laerm;45056;47.602;9.886;2023-09-19T13:44:13;51.80;41.96;73.78;;
59284;Laerm;45056;47.602;9.886;2023-09-19T13:46:41;49.41;41.61;58.92;;
59284;Laerm;45056;47.602;9.886;2023-09-19T13:49:12;48.07;42.65;60.80;;
59284;Laerm;45056;47.602;9.886;2023-09-19T13:51:41;48.37;42.76;60.20;;
59284;Laerm;45056;47.602;9.886;2023-09-19T13:54:10;49.54;42.76;61.75;;
59284;Laerm;45056;47.602;9.886;2023-09-19T13:56:39;50.10;43.29;62.87;;
59284;Laerm;45056;47.602;9.886;2023-09-19T13:59:07;49.15;42.59;58.35;;
59284;Laerm;45056;47.602;9.886;2023-09-19T14:01:35;50.69;42.29;62.12;;
59284;Laerm;45056;47.602;9.886;2023-09-19T14:04:04;48.67;42.59;57.28;;
59284;Laerm;45056;47.602;9.886;2023-09-19T14:06:32;50.86;43.99;65.36;;
59284;Laerm;45056;47.602;9.886;2023-09-19T14:09:02;50.91;43.49;65.44;;
59284;Laerm;45056;47.602;9.886;2023-09-19T14:11:30;48.20;42.09;59.47;;
59284;Laerm;45056;47.602;9.886;2023-09-19T14:13:58;52.97;41.22;69.57;;
59284;Laerm;45056;47.602;9.886;2023-09-19T14:16:27;55.28;42.41;71.71;;
59284;Laerm;45056;47.602;9.886;2023-09-19T14:18:57;49.08;42.16;66.60;;